sensor_id;sensor_type;location;lat;lon;timestamp;P1;durP1;ratioP1;P2;durP2;ratioP2
13234;SDS011;6683;48.506;9.050;2023-04-28T00:02:44;2.67;;;1.97;;
13234;SDS011;6683;48.506;9.050;2023-04-28T00:05:49;5.90;;;2.10;;
13234;SDS011;6683;48.506;9.050;2023-04-28T00:08:52;2.30;;;2.03;;
13234;SDS011;6683;48.506;9.050;2023-04-28T00:11:55;3.07;;;2.23;;
13234;SDS011;6683;48.506;9.050;2023-04-28T00:14:59;2.20;;;2.00;;
13234;SDS011;6683;48.506;9.050;2023-04-28T00:18:02;2.63;;;2.10;;
13234;SDS011;6683;48.506;9.050;2023-04-28T00:21:06;2.60;;;2.10;;
13234;SDS011;6683;48.506;9.050;2023-04-28T00:24:08;2.53;;;1.97;;
13234;SDS011;6683;48.506;9.050;2023-04-28T00:27:10;3.50;;;2.30;;
13234;SDS011;6683;48.506;9.050;2023-04-28T00:30:13;2.63;;;2.43;;
13234;SDS011;6683;48.506;9.050;2023-04-28T00:33:16;2.50;;;2.30;;
13234;SDS011;6683;48.506;9.050;2023-04-28T00:36:20;3.53;;;2.10;;
13234;SDS011;6683;48.506;9.050;2023-04-28T00:39:23;3.00;;;1.90;;
13234;SDS011;6683;48.506;9.050;2023-04-28T00:42:26;2.03;;;1.83;;
13234;SDS011;6683;48.506;9.050;2023-04-28T00:45:28;2.10;;;1.90;;
13234;SDS011;6683;48.506;9.050;2023-04-28T00:48:31;3.37;;;2.30;;
13234;SDS011;6683;48.506;9.050;2023-04-28T00:51:35;2.27;;;2.03;;
13234;SDS011;6683;48.506;9.050;2023-04-28T00:54:37;3.00;;;2.20;;
13234;SDS011;6683;48.506;9.050;2023-04-28T00:57:40;3.00;;;2.70;;
13234;SDS011;6683;48.506;9.050;2023-04-28T01:00:43;3.03;;;2.40;;
13234;SDS011;6683;48.506;9.050;2023-04-28T01:03:45;2.50;;;2.30;;
13234;SDS011;6683;48.506;9.050;2023-04-28T01:06:50;2.67;;;2.20;;
13234;SDS011;6683;48.506;9.050;2023-04-28T01:09:53;2.20;;;1.80;;
13234;SDS011;6683;48.506;9.050;2023-04-28T01:12:56;3.00;;;2.07;;
13234;SDS011;6683;48.506;9.050;2023-04-28T01:15:59;3.00;;;2.30;;
13234;SDS011;6683;48.506;9.050;2023-04-28T01:19:02;1.97;;;1.87;;
13234;SDS011;6683;48.506;9.050;2023-04-28T01:22:08;2.33;;;2.00;;
13234;SDS011;6683;48.506;9.050;2023-04-28T01:25:15;3.20;;;2.00;;
13234;SDS011;6683;48.506;9.050;2023-04-28T01:28:17;2.80;;;2.13;;
13234;SDS011;6683;48.506;9.050;2023-04-28T01:31:20;1.83;;;1.73;;
13234;SDS011;6683;48.506;9.050;2023-04-28T01:34:22;2.40;;;1.80;;
13234;SDS011;6683;48.506;9.050;2023-04-28T01:37:25;3.30;;;2.07;;
13234;SDS011;6683;48.506;9.050;2023-04-28T01:40:29;2.57;;;2.00;;
13234;SDS011;6683;48.506;9.050;2023-04-28T01:43:32;2.77;;;2.00;;
13234;SDS011;6683;48.506;9.050;2023-04-28T01:46:34;2.53;;;2.33;;
13234;SDS011;6683;48.506;9.050;2023-04-28T01:49:36;2.70;;;1.87;;
13234;SDS011;6683;48.506;9.050;2023-04-28T01:52:39;2.67;;;2.10;;
13234;SDS011;6683;48.506;9.050;2023-04-28T01:55:42;2.53;;;2.27;;
13234;SDS011;6683;48.506;9.050;2023-04-28T01:59:21;4.07;;;1.87;;
13234;SDS011;6683;48.506;9.050;2023-04-28T02:02:23;2.20;;;2.00;;
13234;SDS011;6683;48.506;9.050;2023-04-28T02:05:26;3.00;;;2.40;;
13234;SDS011;6683;48.506;9.050;2023-04-28T02:08:29;2.03;;;1.90;;
13234;SDS011;6683;48.506;9.050;2023-04-28T02:11:32;2.80;;;2.17;;
13234;SDS011;6683;48.506;9.050;2023-04-28T02:14:35;2.57;;;2.27;;
13234;SDS011;6683;48.506;9.050;2023-04-28T02:17:37;2.90;;;2.17;;
13234;SDS011;6683;48.506;9.050;2023-04-28T02:20:40;2.70;;;2.00;;
13234;SDS011;6683;48.506;9.050;2023-04-28T02:23:43;2.13;;;1.93;;
13234;SDS011;6683;48.506;9.050;2023-04-28T02:26:47;3.00;;;2.10;;
13234;SDS011;6683;48.506;9.050;2023-04-28T02:29:51;3.33;;;2.03;;
13234;SDS011;6683;48.506;9.050;2023-04-28T02:32:54;2.30;;;1.83;;
13234;SDS011;6683;48.506;9.050;2023-04-28T02:35:57;2.20;;;2.00;;
13234;SDS011;6683;48.506;9.050;2023-04-28T02:39:00;2.50;;;2.30;;
13234;SDS011;6683;48.506;9.050;2023-04-28T02:42:05;2.07;;;1.87;;
13234;SDS011;6683;48.506;9.050;2023-04-28T02:45:07;2.13;;;1.93;;
13234;SDS011;6683;48.506;9.050;2023-04-28T02:48:10;4.53;;;2.23;;
13234;SDS011;6683;48.506;9.050;2023-04-28T02:51:13;2.87;;;2.07;;
13234;SDS011;6683;48.506;9.050;2023-04-28T02:54:15;3.43;;;2.23;;
13234;SDS011;6683;48.506;9.050;2023-04-28T02:57:27;3.10;;;2.00;;
13234;SDS011;6683;48.506;9.050;2023-04-28T03:00:30;2.27;;;2.07;;
13234;SDS011;6683;48.506;9.050;2023-04-28T03:03:32;1.90;;;1.77;;
13234;SDS011;6683;48.506;9.050;2023-04-28T03:06:35;3.03;;;1.97;;
13234;SDS011;6683;48.506;9.050;2023-04-28T03:09:38;2.20;;;2.00;;
13234;SDS011;6683;48.506;9.050;2023-04-28T03:12:42;2.03;;;1.90;;
13234;SDS011;6683;48.506;9.050;2023-04-28T03:15:44;2.90;;;2.60;;
13234;SDS011;6683;48.506;9.050;2023-04-28T03:18:46;3.13;;;2.57;;
13234;SDS011;6683;48.506;9.050;2023-04-28T03:21:48;3.07;;;2.40;;
13234;SDS011;6683;48.506;9.050;2023-04-28T03:24:51;4.03;;;2.87;;
13234;SDS011;6683;48.506;9.050;2023-04-28T03:27:55;3.50;;;2.53;;
13234;SDS011;6683;48.506;9.050;2023-04-28T03:30:57;3.73;;;2.80;;
13234;SDS011;6683;48.506;9.050;2023-04-28T03:34:00;2.90;;;2.50;;
13234;SDS011;6683;48.506;9.050;2023-04-28T03:37:03;3.63;;;2.70;;
13234;SDS011;6683;48.506;9.050;2023-04-28T03:40:06;3.20;;;2.90;;
13234;SDS011;6683;48.506;9.050;2023-04-28T03:43:11;3.97;;;2.73;;
13234;SDS011;6683;48.506;9.050;2023-04-28T03:46:14;3.10;;;2.80;;
13234;SDS011;6683;48.506;9.050;2023-04-28T03:49:16;3.13;;;2.60;;
13234;SDS011;6683;48.506;9.050;2023-04-28T03:52:18;2.43;;;2.23;;
13234;SDS011;6683;48.506;9.050;2023-04-28T03:55:21;3.27;;;2.70;;
13234;SDS011;6683;48.506;9.050;2023-04-28T03:58:26;4.37;;;2.97;;
13234;SDS011;6683;48.506;9.050;2023-04-28T04:01:28;3.90;;;3.00;;
13234;SDS011;6683;48.506;9.050;2023-04-28T04:04:31;2.83;;;2.60;;
13234;SDS011;6683;48.506;9.050;2023-04-28T04:07:33;3.27;;;2.90;;
13234;SDS011;6683;48.506;9.050;2023-04-28T04:10:36;2.93;;;2.70;;
13234;SDS011;6683;48.506;9.050;2023-04-28T04:13:40;3.00;;;2.70;;
13234;SDS011;6683;48.506;9.050;2023-04-28T04:16:44;2.87;;;2.63;;
13234;SDS011;6683;48.506;9.050;2023-04-28T04:19:47;3.47;;;2.77;;
13234;SDS011;6683;48.506;9.050;2023-04-28T04:22:50;3.67;;;3.10;;
13234;SDS011;6683;48.506;9.050;2023-04-28T04:25:52;3.00;;;2.70;;
13234;SDS011;6683;48.506;9.050;2023-04-28T04:28:56;3.80;;;2.60;;
13234;SDS011;6683;48.506;9.050;2023-04-28T04:31:58;3.13;;;2.53;;
13234;SDS011;6683;48.506;9.050;2023-04-28T04:35:00;3.50;;;3.00;;
13234;SDS011;6683;48.506;9.050;2023-04-28T04:38:03;3.10;;;2.83;;
13234;SDS011;6683;48.506;9.050;2023-04-28T04:41:06;3.60;;;2.63;;
13234;SDS011;6683;48.506;9.050;2023-04-28T04:44:10;3.07;;;2.50;;
13234;SDS011;6683;48.506;9.050;2023-04-28T04:47:12;3.97;;;2.50;;
13234;SDS011;6683;48.506;9.050;2023-04-28T04:50:15;2.83;;;2.47;;
13234;SDS011;6683;48.506;9.050;2023-04-28T04:53:18;3.23;;;2.57;;
13234;SDS011;6683;48.506;9.050;2023-04-28T04:56:20;3.63;;;2.83;;
13234;SDS011;6683;48.506;9.050;2023-04-28T04:59:24;3.47;;;2.97;;
13234;SDS011;6683;48.506;9.050;2023-04-28T05:02:27;3.10;;;2.80;;
13234;SDS011;6683;48.506;9.050;2023-04-28T05:05:29;2.90;;;2.57;;
13234;SDS011;6683;48.506;9.050;2023-04-28T05:08:31;3.63;;;3.03;;
13234;SDS011;6683;48.506;9.050;2023-04-28T05:11:33;3.70;;;2.80;;
13234;SDS011;6683;48.506;9.050;2023-04-28T05:14:37;3.57;;;2.67;;
13234;SDS011;6683;48.506;9.050;2023-04-28T05:17:39;3.53;;;2.97;;
13234;SDS011;6683;48.506;9.050;2023-04-28T05:20:42;4.07;;;3.57;;
13234;SDS011;6683;48.506;9.050;2023-04-28T05:23:45;3.77;;;3.40;;
13234;SDS011;6683;48.506;9.050;2023-04-28T05:26:47;5.33;;;3.50;;
13234;SDS011;6683;48.506;9.050;2023-04-28T05:29:51;3.60;;;2.67;;
13234;SDS011;6683;48.506;9.050;2023-04-28T05:32:53;4.00;;;3.13;;
13234;SDS011;6683;48.506;9.050;2023-04-28T05:35:56;4.60;;;3.40;;
13234;SDS011;6683;48.506;9.050;2023-04-28T05:38:58;4.30;;;3.30;;
13234;SDS011;6683;48.506;9.050;2023-04-28T05:42:01;4.33;;;3.27;;
13234;SDS011;6683;48.506;9.050;2023-04-28T05:45:07;3.80;;;3.33;;
13234;SDS011;6683;48.506;9.050;2023-04-28T05:48:11;6.67;;;3.53;;
13234;SDS011;6683;48.506;9.050;2023-04-28T05:51:13;4.33;;;3.40;;
13234;SDS011;6683;48.506;9.050;2023-04-28T05:54:16;6.20;;;3.37;;
13234;SDS011;6683;48.506;9.050;2023-04-28T05:57:18;4.30;;;3.23;;
13234;SDS011;6683;48.506;9.050;2023-04-28T06:00:22;6.20;;;3.73;;
13234;SDS011;6683;48.506;9.050;2023-04-28T06:03:25;4.03;;;3.30;;
13234;SDS011;6683;48.506;9.050;2023-04-28T06:06:27;4.00;;;3.20;;
13234;SDS011;6683;48.506;9.050;2023-04-28T06:09:30;3.20;;;2.80;;
13234;SDS011;6683;48.506;9.050;2023-04-28T06:12:33;3.43;;;3.13;;
13234;SDS011;6683;48.506;9.050;2023-04-28T06:15:37;4.00;;;3.60;;
13234;SDS011;6683;48.506;9.050;2023-04-28T06:18:39;4.37;;;3.77;;
13234;SDS011;6683;48.506;9.050;2023-04-28T06:21:41;5.10;;;3.70;;
13234;SDS011;6683;48.506;9.050;2023-04-28T06:24:44;3.83;;;3.00;;
13234;SDS011;6683;48.506;9.050;2023-04-28T06:27:46;5.07;;;3.30;;
13234;SDS011;6683;48.506;9.050;2023-04-28T06:30:50;4.37;;;3.40;;
13234;SDS011;6683;48.506;9.050;2023-04-28T06:33:52;4.43;;;3.37;;
13234;SDS011;6683;48.506;9.050;2023-04-28T06:36:55;5.50;;;3.30;;
13234;SDS011;6683;48.506;9.050;2023-04-28T06:39:59;3.97;;;3.50;;
13234;SDS011;6683;48.506;9.050;2023-04-28T06:43:02;4.20;;;3.80;;
13234;SDS011;6683;48.506;9.050;2023-04-28T06:46:06;4.80;;;3.93;;
13234;SDS011;6683;48.506;9.050;2023-04-28T06:49:09;5.07;;;3.70;;
13234;SDS011;6683;48.506;9.050;2023-04-28T06:52:12;3.60;;;3.30;;
13234;SDS011;6683;48.506;9.050;2023-04-28T06:55:15;4.03;;;3.27;;
13234;SDS011;6683;48.506;9.050;2023-04-28T06:58:17;4.27;;;3.30;;
13234;SDS011;6683;48.506;9.050;2023-04-28T07:01:22;4.77;;;3.17;;
13234;SDS011;6683;48.506;9.050;2023-04-28T07:04:24;5.57;;;3.33;;
13234;SDS011;6683;48.506;9.050;2023-04-28T07:07:26;4.87;;;3.20;;
13234;SDS011;6683;48.506;9.050;2023-04-28T07:10:28;4.10;;;3.53;;
13234;SDS011;6683;48.506;9.050;2023-04-28T07:13:31;5.97;;;3.90;;
13234;SDS011;6683;48.506;9.050;2023-04-28T07:16:35;4.10;;;3.30;;
13234;SDS011;6683;48.506;9.050;2023-04-28T07:19:38;3.40;;;3.10;;
13234;SDS011;6683;48.506;9.050;2023-04-28T07:22:40;3.57;;;3.27;;
13234;SDS011;6683;48.506;9.050;2023-04-28T07:25:43;3.83;;;3.27;;
13234;SDS011;6683;48.506;9.050;2023-04-28T07:28:45;3.40;;;3.10;;
13234;SDS011;6683;48.506;9.050;2023-04-28T07:31:49;4.27;;;3.27;;
13234;SDS011;6683;48.506;9.050;2023-04-28T07:34:51;3.40;;;3.10;;
13234;SDS011;6683;48.506;9.050;2023-04-28T07:37:54;3.97;;;3.53;;
13234;SDS011;6683;48.506;9.050;2023-04-28T07:40:57;5.03;;;3.50;;
13234;SDS011;6683;48.506;9.050;2023-04-28T07:43:59;4.00;;;3.57;;
13234;SDS011;6683;48.506;9.050;2023-04-28T07:47:05;4.03;;;3.63;;
13234;SDS011;6683;48.506;9.050;2023-04-28T07:50:07;3.50;;;3.20;;
13234;SDS011;6683;48.506;9.050;2023-04-28T07:53:12;3.93;;;3.27;;
13234;SDS011;6683;48.506;9.050;2023-04-28T07:56:14;3.60;;;3.20;;
13234;SDS011;6683;48.506;9.050;2023-04-28T07:59:17;5.97;;;3.23;;
13234;SDS011;6683;48.506;9.050;2023-04-28T08:02:21;4.03;;;3.23;;
13234;SDS011;6683;48.506;9.050;2023-04-28T08:05:23;4.47;;;3.10;;
13234;SDS011;6683;48.506;9.050;2023-04-28T08:08:26;4.57;;;3.50;;
13234;SDS011;6683;48.506;9.050;2023-04-28T08:11:28;3.03;;;2.73;;
13234;SDS011;6683;48.506;9.050;2023-04-28T08:14:31;4.33;;;3.90;;
13234;SDS011;6683;48.506;9.050;2023-04-28T08:17:35;5.23;;;3.60;;
13234;SDS011;6683;48.506;9.050;2023-04-28T08:20:38;4.53;;;4.13;;
13234;SDS011;6683;48.506;9.050;2023-04-28T08:23:41;6.10;;;5.03;;
13234;SDS011;6683;48.506;9.050;2023-04-28T08:26:43;6.20;;;5.00;;
13234;SDS011;6683;48.506;9.050;2023-04-28T08:29:45;5.43;;;4.83;;
13234;SDS011;6683;48.506;9.050;2023-04-28T08:32:50;6.67;;;5.10;;
13234;SDS011;6683;48.506;9.050;2023-04-28T08:35:54;6.63;;;4.60;;
13234;SDS011;6683;48.506;9.050;2023-04-28T08:38:56;4.63;;;4.13;;
13234;SDS011;6683;48.506;9.050;2023-04-28T08:42:02;5.27;;;3.83;;
13234;SDS011;6683;48.506;9.050;2023-04-28T08:45:05;5.33;;;3.70;;
13234;SDS011;6683;48.506;9.050;2023-04-28T08:48:16;5.60;;;4.20;;
13234;SDS011;6683;48.506;9.050;2023-04-28T08:51:23;5.40;;;3.90;;
13234;SDS011;6683;48.506;9.050;2023-04-28T08:54:32;4.40;;;4.00;;
13234;SDS011;6683;48.506;9.050;2023-04-28T08:57:38;5.17;;;3.60;;
13234;SDS011;6683;48.506;9.050;2023-04-28T09:00:45;4.93;;;4.20;;
13234;SDS011;6683;48.506;9.050;2023-04-28T09:03:49;6.37;;;4.40;;
13234;SDS011;6683;48.506;9.050;2023-04-28T09:06:54;4.90;;;4.40;;
13234;SDS011;6683;48.506;9.050;2023-04-28T09:13:24;5.63;;;3.50;;
13234;SDS011;6683;48.506;9.050;2023-04-28T09:16:38;2.50;;;2.30;;
13234;SDS011;6683;48.506;9.050;2023-04-28T09:19:42;3.30;;;2.43;;
13234;SDS011;6683;48.506;9.050;2023-04-28T09:22:46;3.67;;;2.40;;
13234;SDS011;6683;48.506;9.050;2023-04-28T09:25:55;2.57;;;1.60;;
13234;SDS011;6683;48.506;9.050;2023-04-28T09:29:10;1.60;;;1.30;;
13234;SDS011;6683;48.506;9.050;2023-04-28T09:32:14;2.63;;;1.40;;
13234;SDS011;6683;48.506;9.050;2023-04-28T09:35:23;2.27;;;1.50;;
13234;SDS011;6683;48.506;9.050;2023-04-28T09:38:42;1.60;;;1.20;;
13234;SDS011;6683;48.506;9.050;2023-04-28T09:41:45;2.73;;;1.63;;
13234;SDS011;6683;48.506;9.050;2023-04-28T09:44:51;1.83;;;0.93;;
13234;SDS011;6683;48.506;9.050;2023-04-28T09:47:56;1.97;;;1.00;;
13234;SDS011;6683;48.506;9.050;2023-04-28T09:51:19;1.40;;;0.90;;
13234;SDS011;6683;48.506;9.050;2023-04-28T09:54:21;1.23;;;1.13;;
13234;SDS011;6683;48.506;9.050;2023-04-28T09:57:27;0.93;;;0.77;;
13234;SDS011;6683;48.506;9.050;2023-04-28T10:00:33;0.80;;;0.70;;
13234;SDS011;6683;48.506;9.050;2023-04-28T10:03:37;1.10;;;0.60;;
13234;SDS011;6683;48.506;9.050;2023-04-28T10:06:41;1.27;;;0.70;;
13234;SDS011;6683;48.506;9.050;2023-04-28T10:09:46;1.20;;;0.70;;
13234;SDS011;6683;48.506;9.050;2023-04-28T10:12:49;0.73;;;0.57;;
13234;SDS011;6683;48.506;9.050;2023-04-28T10:15:52;1.27;;;0.50;;
13234;SDS011;6683;48.506;9.050;2023-04-28T10:18:57;1.20;;;0.80;;
13234;SDS011;6683;48.506;9.050;2023-04-28T10:22:04;0.50;;;0.50;;
13234;SDS011;6683;48.506;9.050;2023-04-28T10:25:26;0.93;;;0.83;;
13234;SDS011;6683;48.506;9.050;2023-04-28T10:28:31;0.70;;;0.47;;
13234;SDS011;6683;48.506;9.050;2023-04-28T10:31:34;0.93;;;0.70;;
13234;SDS011;6683;48.506;9.050;2023-04-28T10:34:36;0.63;;;0.63;;
13234;SDS011;6683;48.506;9.050;2023-04-28T10:41:05;0.60;;;0.50;;
13234;SDS011;6683;48.506;9.050;2023-04-28T10:44:40;0.90;;;0.50;;
13234;SDS011;6683;48.506;9.050;2023-04-28T10:51:21;0.47;;;0.40;;
13234;SDS011;6683;48.506;9.050;2023-04-28T10:54:38;0.40;;;0.40;;
13234;SDS011;6683;48.506;9.050;2023-04-28T10:57:40;0.40;;;0.40;;
13234;SDS011;6683;48.506;9.050;2023-04-28T11:00:43;1.30;;;0.40;;
13234;SDS011;6683;48.506;9.050;2023-04-28T11:03:47;0.77;;;0.50;;
13234;SDS011;6683;48.506;9.050;2023-04-28T11:07:09;1.10;;;0.60;;
13234;SDS011;6683;48.506;9.050;2023-04-28T11:10:15;0.60;;;0.47;;
13234;SDS011;6683;48.506;9.050;2023-04-28T11:13:24;0.53;;;0.30;;
13234;SDS011;6683;48.506;9.050;2023-04-28T11:16:27;0.50;;;0.50;;
13234;SDS011;6683;48.506;9.050;2023-04-28T11:19:30;0.43;;;0.43;;
13234;SDS011;6683;48.506;9.050;2023-04-28T11:22:33;0.47;;;0.30;;
13234;SDS011;6683;48.506;9.050;2023-04-28T11:28:58;0.30;;;0.30;;
13234;SDS011;6683;48.506;9.050;2023-04-28T11:32:00;0.40;;;0.40;;
13234;SDS011;6683;48.506;9.050;2023-04-28T11:35:04;0.32;;;0.32;;
13234;SDS011;6683;48.506;9.050;2023-04-28T11:38:08;0.65;;;0.30;;
13234;SDS011;6683;48.506;9.050;2023-04-28T11:41:12;0.40;;;0.38;;
13234;SDS011;6683;48.506;9.050;2023-04-28T11:44:15;0.30;;;0.30;;
13234;SDS011;6683;48.506;9.050;2023-04-28T11:47:28;0.38;;;0.38;;
13234;SDS011;6683;48.506;9.050;2023-04-28T11:50:34;0.50;;;0.40;;
13234;SDS011;6683;48.506;9.050;2023-04-28T11:53:40;0.38;;;0.38;;
13234;SDS011;6683;48.506;9.050;2023-04-28T11:56:44;0.40;;;0.40;;
13234;SDS011;6683;48.506;9.050;2023-04-28T11:59:46;0.67;;;0.40;;
13234;SDS011;6683;48.506;9.050;2023-04-28T12:02:49;1.10;;;0.40;;
13234;SDS011;6683;48.506;9.050;2023-04-28T12:05:52;1.90;;;0.50;;
13234;SDS011;6683;48.506;9.050;2023-04-28T12:08:54;0.50;;;0.50;;
13234;SDS011;6683;48.506;9.050;2023-04-28T12:12:03;0.80;;;0.40;;
13234;SDS011;6683;48.506;9.050;2023-04-28T12:15:07;0.60;;;0.30;;
13234;SDS011;6683;48.506;9.050;2023-04-28T12:18:10;0.40;;;0.40;;
13234;SDS011;6683;48.506;9.050;2023-04-28T12:21:19;1.93;;;0.40;;
13234;SDS011;6683;48.506;9.050;2023-04-28T12:24:22;0.50;;;0.47;;
13234;SDS011;6683;48.506;9.050;2023-04-28T12:27:27;0.50;;;0.40;;
13234;SDS011;6683;48.506;9.050;2023-04-28T12:30:30;1.40;;;0.40;;
13234;SDS011;6683;48.506;9.050;2023-04-28T12:33:34;0.97;;;0.53;;
13234;SDS011;6683;48.506;9.050;2023-04-28T12:36:37;0.83;;;0.40;;
13234;SDS011;6683;48.506;9.050;2023-04-28T12:39:39;0.50;;;0.40;;
13234;SDS011;6683;48.506;9.050;2023-04-28T12:42:44;0.87;;;0.40;;
13234;SDS011;6683;48.506;9.050;2023-04-28T12:45:46;0.30;;;0.30;;
13234;SDS011;6683;48.506;9.050;2023-04-28T12:48:48;1.25;;;0.40;;
13234;SDS011;6683;48.506;9.050;2023-04-28T12:51:51;0.30;;;0.30;;
13234;SDS011;6683;48.506;9.050;2023-04-28T12:54:53;0.30;;;0.30;;
13234;SDS011;6683;48.506;9.050;2023-04-28T12:57:56;0.38;;;0.38;;
13234;SDS011;6683;48.506;9.050;2023-04-28T13:00:59;3.22;;;0.30;;
13234;SDS011;6683;48.506;9.050;2023-04-28T13:04:01;0.40;;;0.40;;
13234;SDS011;6683;48.506;9.050;2023-04-28T13:07:04;0.40;;;0.40;;
13234;SDS011;6683;48.506;9.050;2023-04-28T13:10:07;0.83;;;0.70;;
13234;SDS011;6683;48.506;9.050;2023-04-28T13:13:13;1.10;;;0.60;;
13234;SDS011;6683;48.506;9.050;2023-04-28T13:16:15;0.97;;;0.40;;
13234;SDS011;6683;48.506;9.050;2023-04-28T13:19:17;0.33;;;0.33;;
13234;SDS011;6683;48.506;9.050;2023-04-28T13:22:20;0.95;;;0.43;;
13234;SDS011;6683;48.506;9.050;2023-04-28T13:25:22;0.93;;;0.73;;
13234;SDS011;6683;48.506;9.050;2023-04-28T13:28:26;0.30;;;0.30;;
13234;SDS011;6683;48.506;9.050;2023-04-28T13:31:29;0.87;;;0.50;;
13234;SDS011;6683;48.506;9.050;2023-04-28T13:34:31;0.50;;;0.30;;
13234;SDS011;6683;48.506;9.050;2023-04-28T13:37:34;1.30;;;0.70;;
13234;SDS011;6683;48.506;9.050;2023-04-28T13:40:41;0.50;;;0.50;;
13234;SDS011;6683;48.506;9.050;2023-04-28T13:43:45;2.10;;;0.50;;
13234;SDS011;6683;48.506;9.050;2023-04-28T13:46:48;0.67;;;0.40;;
13234;SDS011;6683;48.506;9.050;2023-04-28T13:49:50;0.50;;;0.50;;
13234;SDS011;6683;48.506;9.050;2023-04-28T13:52:52;1.90;;;0.50;;
13234;SDS011;6683;48.506;9.050;2023-04-28T13:55:55;1.13;;;0.60;;
13234;SDS011;6683;48.506;9.050;2023-04-28T13:58:59;0.70;;;0.40;;
13234;SDS011;6683;48.506;9.050;2023-04-28T14:02:02;0.70;;;0.50;;
13234;SDS011;6683;48.506;9.050;2023-04-28T14:05:05;3.47;;;0.60;;
13234;SDS011;6683;48.506;9.050;2023-04-28T14:08:08;0.80;;;0.50;;
13234;SDS011;6683;48.506;9.050;2023-04-28T14:11:10;1.87;;;0.67;;
13234;SDS011;6683;48.506;9.050;2023-04-28T14:14:14;0.90;;;0.60;;
13234;SDS011;6683;48.506;9.050;2023-04-28T14:17:16;1.00;;;0.57;;
13234;SDS011;6683;48.506;9.050;2023-04-28T14:20:19;1.40;;;0.70;;
13234;SDS011;6683;48.506;9.050;2023-04-28T14:23:21;1.03;;;0.57;;
13234;SDS011;6683;48.506;9.050;2023-04-28T14:26:24;1.10;;;0.60;;
13234;SDS011;6683;48.506;9.050;2023-04-28T14:29:28;1.07;;;0.50;;
13234;SDS011;6683;48.506;9.050;2023-04-28T14:32:31;0.77;;;0.53;;
13234;SDS011;6683;48.506;9.050;2023-04-28T14:35:33;1.90;;;0.53;;
13234;SDS011;6683;48.506;9.050;2023-04-28T14:38:35;1.63;;;0.60;;
13234;SDS011;6683;48.506;9.050;2023-04-28T14:41:37;2.10;;;0.60;;
13234;SDS011;6683;48.506;9.050;2023-04-28T14:44:42;3.87;;;2.13;;
13234;SDS011;6683;48.506;9.050;2023-04-28T14:47:45;3.03;;;0.97;;
13234;SDS011;6683;48.506;9.050;2023-04-28T14:50:47;1.97;;;0.70;;
13234;SDS011;6683;48.506;9.050;2023-04-28T14:53:50;1.37;;;0.90;;
13234;SDS011;6683;48.506;9.050;2023-04-28T14:56:52;2.73;;;0.80;;
13234;SDS011;6683;48.506;9.050;2023-04-28T14:59:56;1.50;;;0.90;;
13234;SDS011;6683;48.506;9.050;2023-04-28T15:02:58;1.60;;;0.83;;
13234;SDS011;6683;48.506;9.050;2023-04-28T15:06:00;0.97;;;0.87;;
13234;SDS011;6683;48.506;9.050;2023-04-28T15:09:04;0.90;;;0.70;;
13234;SDS011;6683;48.506;9.050;2023-04-28T15:12:06;2.33;;;0.90;;
13234;SDS011;6683;48.506;9.050;2023-04-28T15:15:10;1.70;;;1.10;;
13234;SDS011;6683;48.506;9.050;2023-04-28T15:18:13;1.47;;;1.10;;
13234;SDS011;6683;48.506;9.050;2023-04-28T15:21:15;1.17;;;0.90;;
13234;SDS011;6683;48.506;9.050;2023-04-28T15:24:18;1.20;;;0.97;;
13234;SDS011;6683;48.506;9.050;2023-04-28T15:27:21;0.97;;;0.90;;
13234;SDS011;6683;48.506;9.050;2023-04-28T15:30:24;0.70;;;0.70;;
13234;SDS011;6683;48.506;9.050;2023-04-28T15:33:27;0.97;;;0.87;;
13234;SDS011;6683;48.506;9.050;2023-04-28T15:36:29;2.13;;;1.50;;
13234;SDS011;6683;48.506;9.050;2023-04-28T15:39:31;1.20;;;1.00;;
13234;SDS011;6683;48.506;9.050;2023-04-28T15:42:33;1.00;;;0.83;;
13234;SDS011;6683;48.506;9.050;2023-04-28T15:45:37;1.57;;;1.47;;
13234;SDS011;6683;48.506;9.050;2023-04-28T15:48:40;1.20;;;1.10;;
13234;SDS011;6683;48.506;9.050;2023-04-28T15:51:42;3.10;;;2.60;;
13234;SDS011;6683;48.506;9.050;2023-04-28T15:54:44;1.17;;;1.07;;
13234;SDS011;6683;48.506;9.050;2023-04-28T15:57:47;2.17;;;0.90;;
13234;SDS011;6683;48.506;9.050;2023-04-28T16:00:52;1.37;;;1.00;;
13234;SDS011;6683;48.506;9.050;2023-04-28T16:03:56;3.17;;;1.60;;
13234;SDS011;6683;48.506;9.050;2023-04-28T16:06:59;4.90;;;2.30;;
13234;SDS011;6683;48.506;9.050;2023-04-28T16:10:01;2.87;;;1.70;;
13234;SDS011;6683;48.506;9.050;2023-04-28T16:13:04;2.47;;;1.87;;
13234;SDS011;6683;48.506;9.050;2023-04-28T16:16:11;2.73;;;2.03;;
13234;SDS011;6683;48.506;9.050;2023-04-28T16:19:13;2.27;;;1.30;;
13234;SDS011;6683;48.506;9.050;2023-04-28T16:22:16;3.47;;;1.40;;
13234;SDS011;6683;48.506;9.050;2023-04-28T16:25:18;2.30;;;1.30;;
13234;SDS011;6683;48.506;9.050;2023-04-28T16:28:21;2.67;;;1.20;;
13234;SDS011;6683;48.506;9.050;2023-04-28T16:31:24;1.20;;;1.10;;
13234;SDS011;6683;48.506;9.050;2023-04-28T16:34:27;1.70;;;1.10;;
13234;SDS011;6683;48.506;9.050;2023-04-28T16:37:29;1.17;;;0.90;;
13234;SDS011;6683;48.506;9.050;2023-04-28T16:40:31;1.07;;;0.90;;
13234;SDS011;6683;48.506;9.050;2023-04-28T16:43:33;2.90;;;1.10;;
13234;SDS011;6683;48.506;9.050;2023-04-28T16:46:38;1.40;;;1.13;;
13234;SDS011;6683;48.506;9.050;2023-04-28T16:49:41;0.97;;;0.87;;
13234;SDS011;6683;48.506;9.050;2023-04-28T16:52:44;1.67;;;0.90;;
13234;SDS011;6683;48.506;9.050;2023-04-28T16:55:47;0.90;;;0.80;;
13234;SDS011;6683;48.506;9.050;2023-04-28T16:58:49;0.90;;;0.73;;
13234;SDS011;6683;48.506;9.050;2023-04-28T17:01:53;1.53;;;0.90;;
13234;SDS011;6683;48.506;9.050;2023-04-28T17:04:55;0.90;;;0.90;;
13234;SDS011;6683;48.506;9.050;2023-04-28T17:07:57;1.53;;;1.10;;
13234;SDS011;6683;48.506;9.050;2023-04-28T17:11:00;4.30;;;1.00;;
13234;SDS011;6683;48.506;9.050;2023-04-28T17:14:04;0.83;;;0.73;;
13234;SDS011;6683;48.506;9.050;2023-04-28T17:17:08;1.97;;;0.93;;
13234;SDS011;6683;48.506;9.050;2023-04-28T17:20:11;1.93;;;1.13;;
13234;SDS011;6683;48.506;9.050;2023-04-28T17:23:15;2.27;;;1.63;;
13234;SDS011;6683;48.506;9.050;2023-04-28T17:26:18;2.47;;;1.70;;
13234;SDS011;6683;48.506;9.050;2023-04-28T17:29:20;1.93;;;1.53;;
13234;SDS011;6683;48.506;9.050;2023-04-28T17:32:24;1.57;;;1.33;;
13234;SDS011;6683;48.506;9.050;2023-04-28T17:35:27;1.50;;;1.40;;
13234;SDS011;6683;48.506;9.050;2023-04-28T17:38:30;1.60;;;1.50;;
13234;SDS011;6683;48.506;9.050;2023-04-28T17:41:32;2.07;;;1.70;;
13234;SDS011;6683;48.506;9.050;2023-04-28T17:44:34;1.30;;;1.20;;
13234;SDS011;6683;48.506;9.050;2023-04-28T17:47:38;1.90;;;1.60;;
13234;SDS011;6683;48.506;9.050;2023-04-28T17:50:41;1.70;;;1.60;;
13234;SDS011;6683;48.506;9.050;2023-04-28T17:53:43;1.43;;;1.20;;
13234;SDS011;6683;48.506;9.050;2023-04-28T17:56:47;1.40;;;1.30;;
13234;SDS011;6683;48.506;9.050;2023-04-28T17:59:50;1.87;;;1.70;;
13234;SDS011;6683;48.506;9.050;2023-04-28T18:02:54;1.93;;;1.20;;
13234;SDS011;6683;48.506;9.050;2023-04-28T18:05:56;2.23;;;1.23;;
13234;SDS011;6683;48.506;9.050;2023-04-28T18:08:58;1.80;;;1.07;;
13234;SDS011;6683;48.506;9.050;2023-04-28T18:12:01;1.50;;;1.10;;
13234;SDS011;6683;48.506;9.050;2023-04-28T18:15:04;1.77;;;0.87;;
13234;SDS011;6683;48.506;9.050;2023-04-28T18:18:10;1.03;;;0.97;;
13234;SDS011;6683;48.506;9.050;2023-04-28T18:21:15;1.30;;;1.00;;
13234;SDS011;6683;48.506;9.050;2023-04-28T18:24:18;1.40;;;1.13;;
13234;SDS011;6683;48.506;9.050;2023-04-28T18:27:20;1.40;;;1.20;;
13234;SDS011;6683;48.506;9.050;2023-04-28T18:30:22;1.87;;;1.00;;
13234;SDS011;6683;48.506;9.050;2023-04-28T18:33:26;1.20;;;1.10;;
13234;SDS011;6683;48.506;9.050;2023-04-28T18:36:28;2.20;;;1.20;;
13234;SDS011;6683;48.506;9.050;2023-04-28T18:39:34;2.77;;;1.60;;
13234;SDS011;6683;48.506;9.050;2023-04-28T18:42:37;2.70;;;2.00;;
13234;SDS011;6683;48.506;9.050;2023-04-28T18:45:39;2.80;;;2.53;;
13234;SDS011;6683;48.506;9.050;2023-04-28T18:48:43;6.70;;;2.97;;
13234;SDS011;6683;48.506;9.050;2023-04-28T18:51:46;2.97;;;2.17;;
13234;SDS011;6683;48.506;9.050;2023-04-28T18:54:48;2.83;;;2.63;;
13234;SDS011;6683;48.506;9.050;2023-04-28T18:57:51;4.90;;;3.17;;